createdAt,value
2018-06-11T00:01:21.656Z,83.20
2018-06-11T00:03:50.382Z,83.20
2018-06-11T00:06:19.089Z,83.70
2018-06-11T00:08:47.803Z,83.30
2018-06-11T00:11:16.486Z,83.30
2018-06-11T00:13:45.208Z,83.40
2018-06-11T00:16:13.913Z,83.40
2018-06-11T00:18:42.605Z,83.40
2018-06-11T00:21:11.329Z,83.50
2018-06-11T00:23:40.010Z,83.60
2018-06-11T00:26:08.941Z,83.70
2018-06-11T00:31:06.104Z,83.80
2018-06-11T00:36:03.309Z,84.70
2018-06-11T00:38:32.001Z,84.10
2018-06-11T00:41:00.761Z,84.20
2018-06-11T00:43:29.447Z,84.10
2018-06-11T00:45:58.661Z,84.10
2018-06-11T00:48:27.466Z,84.20
2018-06-11T00:50:56.174Z,84.10
2018-06-11T00:53:24.878Z,83.90
2018-06-11T00:56:05.893Z,83.90
2018-06-11T00:58:34.729Z,83.80
2018-06-11T01:01:03.449Z,83.80
2018-06-11T01:06:00.933Z,83.70
2018-06-11T01:08:29.612Z,83.70
2018-06-11T01:13:26.709Z,83.70
2018-06-11T01:15:55.424Z,83.30
2018-06-11T01:18:24.097Z,83.40
2018-06-11T01:20:54.001Z,83.30
2018-06-11T01:23:22.687Z,83.10
2018-06-11T01:25:51.345Z,82.90
2018-06-11T01:28:20.062Z,82.80
2018-06-11T01:30:48.724Z,82.90
2018-06-11T01:33:17.447Z,82.70
2018-06-11T01:35:46.160Z,82.60
2018-06-11T01:38:14.873Z,82.10
2018-06-11T01:40:43.554Z,82.30
2018-06-11T01:43:12.286Z,82.40
2018-06-11T01:45:40.966Z,81.90
2018-06-11T01:48:09.711Z,81.50
2018-06-11T01:53:06.902Z,81.80
2018-06-11T01:55:35.673Z,81.20
2018-06-11T01:58:04.336Z,81.00
2018-06-11T02:00:33.094Z,80.90
2018-06-11T02:03:01.775Z,81.80
2018-06-11T02:05:30.505Z,81.20
2018-06-11T02:10:27.593Z,81.10
2018-06-11T02:12:56.267Z,80.90
2018-06-11T02:20:21.756Z,80.10
2018-06-11T02:22:51.072Z,80.00
2018-06-11T02:25:19.791Z,80.00
2018-06-11T02:30:16.914Z,79.50
2018-06-11T02:32:45.622Z,79.60
2018-06-11T02:35:14.285Z,79.40
2018-06-11T02:37:43.005Z,79.40
2018-06-11T02:40:11.748Z,79.60
2018-06-11T02:42:40.445Z,79.40
2018-06-11T02:45:09.202Z,79.50
2018-06-11T02:47:37.873Z,79.60
2018-06-11T02:50:06.682Z,79.80
2018-06-11T02:52:35.405Z,80.10
2018-06-11T02:55:04.138Z,80.00
2018-06-11T02:57:32.822Z,80.60
2018-06-11T03:00:02.455Z,80.20
2018-06-11T03:02:31.170Z,80.10
2018-06-11T03:04:59.857Z,79.20
2018-06-11T03:07:28.644Z,79.00
2018-06-11T03:09:57.308Z,78.90
2018-06-11T03:12:26.612Z,78.70
2018-06-11T03:14:55.323Z,78.40
2018-06-11T03:17:24.056Z,77.90
2018-06-11T03:19:52.715Z,78.40
2018-06-11T03:22:21.482Z,77.30
2018-06-11T03:24:50.180Z,77.30
2018-06-11T03:27:18.881Z,77.60
2018-06-11T03:29:47.585Z,77.30
2018-06-11T03:32:16.316Z,77.20
2018-06-11T03:34:45.055Z,77.00
2018-06-11T03:37:13.706Z,77.20
2018-06-11T03:39:42.446Z,75.90
2018-06-11T03:42:11.157Z,75.90
2018-06-11T03:44:39.861Z,75.60
2018-06-11T03:47:08.603Z,75.70
2018-06-11T03:49:37.298Z,75.40
2018-06-11T03:52:05.995Z,75.30
2018-06-11T03:54:34.683Z,75.40
2018-06-11T03:57:03.410Z,75.90
2018-06-11T03:59:32.123Z,75.30
2018-06-11T04:04:29.241Z,76.30
2018-06-11T04:06:57.972Z,75.00
2018-06-11T04:11:55.107Z,74.60
2018-06-11T04:14:23.835Z,74.40
2018-06-11T04:16:52.545Z,74.20
2018-06-11T04:19:21.229Z,74.70
2018-06-11T04:21:49.925Z,74.10
2018-06-11T04:24:18.673Z,73.80
2018-06-11T04:26:47.313Z,73.80
2018-06-11T04:29:15.961Z,73.50
2018-06-11T04:31:44.837Z,73.60
2018-06-11T04:34:13.521Z,73.60
2018-06-11T04:36:42.196Z,74.10
2018-06-11T04:44:07.690Z,74.20
2018-06-11T04:46:36.398Z,73.80
2018-06-11T04:49:05.097Z,73.50
2018-06-11T04:54:02.241Z,72.10
2018-06-11T04:56:30.944Z,71.70
2018-06-11T04:58:59.669Z,71.60
2018-06-11T05:01:28.363Z,71.40
2018-06-11T05:03:57.034Z,71.90
2018-06-11T05:06:25.747Z,71.60
2018-06-11T05:08:54.429Z,71.70
2018-06-11T05:11:23.134Z,70.90
2018-06-11T05:13:52.520Z,70.20
2018-06-11T05:16:21.225Z,70.00
2018-06-11T05:18:50.848Z,69.50
2018-06-11T05:21:19.564Z,68.70
2018-06-11T05:23:48.262Z,68.70
2018-06-11T05:26:16.981Z,68.70
2018-06-11T05:28:45.640Z,67.60
2018-06-11T05:33:42.829Z,67.50
2018-06-11T05:36:11.590Z,67.50
2018-06-11T05:38:40.220Z,66.90
2018-06-11T05:41:08.910Z,67.00
2018-06-11T05:43:37.583Z,67.20
2018-06-11T05:46:06.280Z,67.00
2018-06-11T05:48:35.020Z,65.10
2018-06-11T05:51:03.677Z,63.90
2018-06-11T05:53:33.337Z,63.30
2018-06-11T05:56:02.046Z,64.10
2018-06-11T05:58:30.782Z,65.10
2018-06-11T06:00:59.461Z,65.50
2018-06-11T06:05:56.582Z,65.40
2018-06-11T06:08:25.295Z,65.90
2018-06-11T06:10:54.022Z,65.60
2018-06-11T06:13:22.708Z,65.50
2018-06-11T06:15:51.406Z,65.10
2018-06-11T06:18:20.337Z,63.00
2018-06-11T06:20:49.045Z,63.50
2018-06-11T06:28:14.497Z,60.70
2018-06-11T06:30:43.294Z,59.60
2018-06-11T06:33:11.980Z,60.00
2018-06-11T06:35:40.656Z,60.10
2018-06-11T06:40:37.759Z,60.70
2018-06-11T06:43:06.444Z,60.90
2018-06-11T06:45:35.149Z,61.20
2018-06-11T06:48:03.890Z,61.60
2018-06-11T06:50:32.579Z,61.50
2018-06-11T06:53:01.254Z,61.60
2018-06-11T06:57:58.455Z,61.20
2018-06-11T07:00:27.163Z,61.70
2018-06-11T07:02:55.893Z,61.70
2018-06-11T07:07:53.017Z,61.60
2018-06-11T07:10:21.738Z,61.20
2018-06-11T07:15:18.845Z,61.60
2018-06-11T07:17:47.616Z,60.10
2018-06-11T07:20:16.318Z,60.70
2018-06-11T07:22:44.993Z,60.90
2018-06-11T07:25:14.061Z,61.40
2018-06-11T07:30:11.618Z,60.80
2018-06-11T07:32:40.330Z,60.20
2018-06-11T07:35:09.237Z,60.00
2018-06-11T07:40:06.333Z,59.60
2018-06-11T07:42:35.048Z,59.80
2018-06-11T07:45:03.758Z,58.40
2018-06-11T07:50:00.849Z,57.00
2018-06-11T07:52:29.557Z,57.40
2018-06-11T07:54:58.311Z,56.70
2018-06-11T07:57:27.098Z,56.20
2018-06-11T07:59:56.446Z,55.50
2018-06-11T08:02:25.142Z,56.00
2018-06-11T08:04:53.822Z,54.10
2018-06-11T08:07:22.574Z,53.10
2018-06-11T08:09:52.213Z,53.40
2018-06-11T08:12:20.953Z,52.10
2018-06-11T08:14:49.618Z,50.30
2018-06-11T08:17:18.821Z,42.80
2018-06-11T08:22:15.925Z,40.50
2018-06-11T08:24:44.569Z,40.90
2018-06-11T08:27:13.318Z,41.10
2018-06-11T08:29:42.071Z,42.00
2018-06-11T08:32:10.706Z,42.40
2018-06-11T08:34:39.396Z,41.70
2018-06-11T08:37:08.134Z,42.30
2018-06-11T08:39:36.895Z,41.00
2018-06-11T08:44:34.005Z,39.70
2018-06-11T08:47:02.868Z,32.00
2018-06-11T08:49:31.686Z,32.20
2018-06-11T08:52:00.458Z,28.40
2018-06-11T08:54:29.244Z,25.10
2018-06-11T08:59:26.452Z,21.60
2018-06-11T09:01:55.241Z,20.00
2018-06-11T09:04:23.998Z,19.20
2018-06-11T09:06:52.764Z,18.90
2018-06-11T09:14:24.962Z,19.20
2018-06-11T09:16:53.641Z,21.00
2018-06-11T09:19:22.318Z,21.50
2018-06-11T09:21:51.006Z,22.30
2018-06-11T09:24:19.706Z,23.90
2018-06-11T09:26:48.466Z,24.40
2018-06-11T09:44:07.560Z,17.10
2018-06-11T09:46:36.202Z,17.40
2018-06-11T09:49:05.039Z,15.80
2018-06-11T09:54:02.105Z,15.10
2018-06-11T09:56:31.942Z,15.60
2018-06-11T09:59:00.660Z,15.90
2018-06-11T10:01:29.448Z,15.30
2018-06-11T10:03:58.123Z,15.70
2018-06-11T10:06:26.826Z,15.70
2018-06-11T10:08:55.528Z,15.90
2018-06-11T10:18:49.438Z,15.50
2018-06-11T10:21:18.641Z,16.00
2018-06-11T10:23:47.337Z,15.60
2018-06-11T10:26:16.033Z,15.50
2018-06-11T10:28:44.740Z,15.60
2018-06-11T10:31:13.477Z,15.80
2018-06-11T10:33:42.161Z,16.30
2018-06-11T10:36:10.892Z,15.90
2018-06-11T10:38:39.590Z,16.50
2018-06-11T10:41:08.287Z,17.10
2018-06-11T10:43:37.041Z,17.00
2018-06-11T10:46:05.701Z,17.20
2018-06-11T10:48:34.405Z,18.00
2018-06-11T10:51:03.102Z,17.40
2018-06-11T10:53:31.797Z,17.70
2018-06-11T10:56:00.492Z,18.20
2018-06-11T10:58:29.197Z,18.50
2018-06-11T11:00:57.912Z,18.80
2018-06-11T11:03:26.598Z,18.80
2018-06-11T11:05:55.332Z,18.60
2018-06-11T11:08:24.062Z,19.00
2018-06-11T11:10:53.213Z,19.50
2018-06-11T11:13:21.922Z,20.30
2018-06-11T11:15:50.625Z,20.60
2018-06-11T11:18:19.310Z,21.20
2018-06-11T11:20:47.978Z,20.70
2018-06-11T11:23:16.695Z,21.00
2018-06-11T11:25:45.420Z,21.30
2018-06-11T11:30:42.474Z,21.20
2018-06-11T11:35:46.226Z,20.50
2018-06-11T11:38:14.900Z,21.60
2018-06-11T11:40:43.577Z,21.10
2018-06-11T11:43:12.263Z,22.10
2018-06-11T11:45:40.951Z,21.90
2018-06-11T11:48:09.634Z,20.40
2018-06-11T11:50:38.313Z,21.30
2018-06-11T11:53:07.021Z,22.00
2018-06-11T11:55:35.738Z,22.50
2018-06-11T11:58:04.547Z,23.50
2018-06-11T12:00:33.231Z,23.10
2018-06-11T12:03:01.960Z,24.00
2018-06-11T12:05:30.654Z,24.30
2018-06-11T12:07:59.360Z,24.80
2018-06-11T12:10:28.657Z,24.80
2018-06-11T12:12:57.339Z,24.30
2018-06-11T12:15:26.030Z,24.80
2018-06-11T12:17:54.718Z,24.50
2018-06-11T12:20:23.417Z,24.90
2018-06-11T12:22:52.093Z,25.00
2018-06-11T12:25:20.779Z,25.20
2018-06-11T12:27:49.481Z,25.70
2018-06-11T12:30:18.165Z,25.70
2018-06-11T12:32:46.878Z,26.40
2018-06-11T12:35:15.600Z,27.40
2018-06-11T12:37:44.250Z,25.90
2018-06-11T12:40:12.936Z,26.70
2018-06-11T12:42:41.652Z,27.20
2018-06-11T12:45:10.327Z,27.40
2018-06-11T12:50:07.399Z,27.50
2018-06-11T12:52:36.094Z,27.50
2018-06-11T12:55:04.805Z,27.40
2018-06-11T12:57:33.514Z,27.70
2018-06-11T13:00:02.196Z,28.50
2018-06-11T13:02:31.062Z,28.30
2018-06-11T13:04:59.774Z,28.40
2018-06-11T13:09:57.791Z,28.50
2018-06-11T13:12:26.441Z,28.10
2018-06-11T13:14:55.117Z,27.90
2018-06-11T13:17:23.839Z,27.00
2018-06-11T13:19:53.421Z,28.00
2018-06-11T13:22:22.111Z,28.20
2018-06-11T13:24:50.813Z,28.70
2018-06-11T13:27:19.530Z,29.30
2018-06-11T13:29:48.244Z,29.10
2018-06-11T13:32:16.945Z,29.20
2018-06-11T13:34:45.616Z,29.50
2018-06-11T13:37:14.294Z,30.00
2018-06-11T13:39:42.965Z,30.30
2018-06-11T13:42:11.642Z,30.20
2018-06-11T13:44:40.390Z,30.30
2018-06-11T13:47:09.009Z,30.90
2018-06-11T13:54:34.475Z,30.60
2018-06-11T13:57:03.207Z,31.10
2018-06-11T13:59:31.823Z,30.20
2018-06-11T14:04:28.887Z,29.40
2018-06-11T14:11:54.365Z,30.80
2018-06-11T14:14:23.050Z,31.00
2018-06-11T14:16:51.745Z,32.30
2018-06-11T14:19:20.519Z,31.60
2018-06-11T14:21:49.146Z,31.40
2018-06-11T14:24:17.829Z,32.00
2018-06-11T14:26:46.564Z,32.50
2018-06-11T14:29:15.249Z,31.90
2018-06-11T14:31:43.958Z,33.10
2018-06-11T14:34:12.621Z,31.50
2018-06-11T14:36:41.306Z,32.00
2018-06-11T14:41:38.402Z,32.40
2018-06-11T14:44:07.097Z,32.70
2018-06-11T14:46:35.789Z,32.70
2018-06-11T14:49:04.529Z,32.80
2018-06-11T14:51:33.182Z,33.10
2018-06-11T14:54:01.864Z,32.60
2018-06-11T14:56:30.576Z,32.90
2018-06-11T15:01:27.631Z,33.10
2018-06-11T15:03:56.306Z,32.30
2018-06-11T15:06:25.001Z,33.50
2018-06-11T15:08:53.813Z,33.20
2018-06-11T15:11:22.434Z,33.20
2018-06-11T15:13:51.149Z,32.90
2018-06-11T15:16:19.837Z,33.00
2018-06-11T15:18:48.537Z,32.80
2018-06-11T15:26:14.000Z,32.10
2018-06-11T15:28:42.692Z,32.10
2018-06-11T15:31:11.359Z,32.70
2018-06-11T15:33:40.037Z,32.90
2018-06-11T15:36:08.705Z,32.80
2018-06-11T15:38:37.426Z,32.70
2018-06-11T15:43:34.597Z,32.20
2018-06-11T15:46:03.249Z,32.10
2018-06-11T15:53:28.800Z,31.70
2018-06-11T15:55:57.496Z,31.50
2018-06-11T15:58:26.217Z,31.60
2018-06-11T16:00:54.878Z,31.70
2018-06-11T16:03:23.602Z,32.20
2018-06-11T16:05:52.760Z,31.50
2018-06-11T16:08:21.453Z,31.40
2018-06-11T16:10:50.205Z,31.20
2018-06-11T16:13:18.928Z,30.70
2018-06-11T16:15:47.601Z,31.10
2018-06-11T16:23:13.074Z,31.10
2018-06-11T16:25:41.756Z,31.10
2018-06-11T16:28:10.465Z,31.40
2018-06-11T16:30:39.152Z,30.90
2018-06-11T16:33:07.823Z,30.70
2018-06-11T16:35:36.595Z,31.30
2018-06-11T16:38:05.378Z,30.80
2018-06-11T16:40:34.007Z,31.50
2018-06-11T16:43:02.736Z,31.40
2018-06-11T16:45:32.097Z,31.40
2018-06-11T16:48:00.837Z,31.70
2018-06-11T16:52:57.909Z,32.50
2018-06-11T16:55:26.597Z,33.10
2018-06-11T16:57:55.413Z,33.10
2018-06-11T17:00:24.121Z,35.20
2018-06-11T17:02:52.834Z,34.00
2018-06-11T17:05:21.522Z,33.70
2018-06-11T17:07:50.245Z,34.60
2018-06-11T17:10:18.946Z,33.90
2018-06-11T17:12:47.675Z,34.30
2018-06-11T17:15:17.409Z,34.60
2018-06-11T17:20:14.499Z,35.50
2018-06-11T17:22:43.177Z,35.70
2018-06-11T17:25:11.908Z,36.10
2018-06-11T17:27:41.071Z,36.30
2018-06-11T17:30:09.792Z,35.70
2018-06-11T17:35:07.150Z,36.40
2018-06-11T17:40:04.234Z,37.10
2018-06-11T17:42:32.929Z,37.20
2018-06-11T17:47:30.016Z,37.50
2018-06-11T17:49:58.680Z,38.00
2018-06-11T17:52:27.381Z,38.40
2018-06-11T17:57:24.625Z,38.90
2018-06-11T17:59:58.287Z,38.80
2018-06-11T18:02:26.994Z,39.30
2018-06-11T18:04:56.047Z,38.80
2018-06-11T18:07:24.838Z,39.40
2018-06-11T18:09:53.640Z,39.30
2018-06-11T18:12:22.435Z,39.60
2018-06-11T18:14:51.197Z,39.70
2018-06-11T18:19:48.262Z,40.60
2018-06-11T18:22:17.155Z,40.20
2018-06-11T18:24:45.824Z,40.00
2018-06-11T18:29:42.897Z,40.40
2018-06-11T18:34:39.952Z,40.30
2018-06-11T18:37:08.661Z,40.20
2018-06-11T18:39:37.380Z,40.10
2018-06-11T18:42:06.045Z,40.50
2018-06-11T18:44:34.817Z,40.70
2018-06-11T18:47:03.605Z,41.00
2018-06-11T18:49:32.299Z,41.00
2018-06-11T18:52:01.094Z,41.50
2018-06-11T18:56:58.288Z,41.70
2018-06-11T18:59:27.001Z,42.20
2018-06-11T19:01:55.749Z,42.50
2018-06-11T19:04:24.534Z,43.00
2018-06-11T19:06:53.530Z,43.50
2018-06-11T19:09:23.036Z,43.90
2018-06-11T19:11:51.942Z,44.50
2018-06-11T19:14:20.919Z,44.70
2018-06-11T19:16:49.779Z,45.20
2018-06-11T19:21:47.052Z,45.20
2018-06-11T19:24:16.670Z,45.70
2018-06-11T19:26:45.357Z,46.20
2018-06-11T19:29:14.150Z,45.40
2018-06-11T19:31:42.985Z,45.60
2018-06-11T19:34:11.653Z,45.50
2018-06-11T19:36:40.416Z,45.50
2018-06-11T19:39:09.225Z,45.70
2018-06-11T19:41:38.022Z,46.20
2018-06-11T19:44:06.801Z,46.00
2018-06-11T19:46:36.161Z,46.50
2018-06-11T19:49:04.941Z,46.50
2018-06-11T19:54:02.118Z,47.10
2018-06-11T19:58:59.309Z,47.60
2018-06-11T20:01:28.088Z,47.70
2018-06-11T20:03:56.814Z,47.80
2018-06-11T20:06:25.542Z,48.10
2018-06-11T20:08:54.458Z,48.20
2018-06-11T20:11:23.350Z,48.60
2018-06-11T20:16:20.791Z,49.10
2018-06-11T20:18:49.519Z,49.30
2018-06-11T20:21:18.286Z,49.60
2018-06-11T20:23:47.020Z,49.90
2018-06-11T20:26:15.744Z,50.00
2018-06-11T20:28:44.544Z,50.40
2018-06-11T20:31:13.309Z,50.50
2018-06-11T20:33:42.067Z,50.80
2018-06-11T20:36:10.799Z,50.90
2018-06-11T20:38:39.485Z,51.30
2018-06-11T20:43:36.657Z,52.00
2018-06-11T20:48:33.725Z,52.50
2018-06-11T20:51:02.481Z,52.80
2018-06-11T20:53:31.826Z,53.30
2018-06-11T20:56:00.546Z,53.50
2018-06-11T20:58:29.246Z,53.80
2018-06-11T21:00:57.973Z,53.80
2018-06-11T21:08:23.499Z,55.30
2018-06-11T21:10:52.205Z,54.80
2018-06-11T21:13:20.916Z,55.10
2018-06-11T21:15:49.626Z,55.30
2018-06-11T21:18:18.337Z,55.60
2018-06-11T21:20:47.040Z,55.80
2018-06-11T21:23:15.785Z,56.30
2018-06-11T21:25:44.508Z,56.70
2018-06-11T21:28:13.221Z,57.00
2018-06-11T21:30:41.935Z,57.50
2018-06-11T21:33:10.606Z,57.70
2018-06-11T21:35:39.341Z,58.00
2018-06-11T21:38:08.081Z,58.30
2018-06-11T21:43:05.170Z,58.50
2018-06-11T21:45:34.549Z,58.80
2018-06-11T21:48:03.226Z,59.10
2018-06-11T21:50:32.852Z,59.40
2018-06-11T21:53:01.534Z,59.90
2018-06-11T21:55:30.267Z,60.50
2018-06-11T21:57:59.961Z,60.80
2018-06-11T22:00:28.681Z,61.20
2018-06-11T22:02:57.378Z,61.70
2018-06-11T22:05:26.080Z,61.90
2018-06-11T22:07:54.779Z,62.00
2018-06-11T22:10:23.548Z,62.40
2018-06-11T22:12:52.286Z,62.80
2018-06-11T22:15:21.031Z,63.20
2018-06-11T22:17:49.969Z,63.70
2018-06-11T22:20:18.710Z,64.10
2018-06-11T22:22:47.427Z,64.30
2018-06-11T22:25:16.159Z,64.50
2018-06-11T22:30:13.266Z,65.10
2018-06-11T22:32:41.986Z,65.10
2018-06-11T22:35:10.808Z,65.30
2018-06-11T22:37:39.490Z,65.50
2018-06-11T22:40:08.179Z,65.90
2018-06-11T22:42:37.402Z,66.00
2018-06-11T22:45:06.232Z,66.40
2018-06-11T22:47:34.984Z,66.60
2018-06-11T22:50:03.722Z,66.80
2018-06-11T22:55:00.830Z,67.50
2018-06-11T22:57:29.591Z,67.30
2018-06-11T22:59:58.511Z,67.00
2018-06-11T23:02:34.022Z,66.60
2018-06-11T23:05:02.764Z,66.60
2018-06-11T23:07:31.527Z,66.80
2018-06-11T23:10:00.337Z,67.20
2018-06-11T23:12:29.079Z,67.50
2018-06-11T23:19:54.729Z,68.30
2018-06-11T23:22:23.461Z,68.20
2018-06-11T23:24:52.126Z,68.50
2018-06-11T23:27:20.937Z,68.30
2018-06-11T23:29:49.655Z,68.00
2018-06-11T23:32:19.295Z,68.20
2018-06-11T23:34:47.952Z,68.60
2018-06-11T23:39:45.044Z,68.40
2018-06-11T23:42:13.770Z,68.30
2018-06-11T23:44:42.502Z,68.30
2018-06-11T23:47:11.233Z,68.40
2018-06-11T23:49:39.966Z,68.60
2018-06-11T23:54:37.194Z,68.60
2018-06-11T23:57:05.889Z,68.70
2018-06-11T23:59:34.605Z,68.80
